Terminal Aerodrome Forecast
Issued by NWS

Home | Current Version | Previous Version | Text Only | Print | Product List | Glossary On
Versions: 1 2 3 4 5 6 7 8 9 10 11 12 13
000
FTUS44 KEPZ 292300
TAFTCS
TAF
KTCS 292332Z 3000/3024 16007KT P6SM VCTS BKN070CB BKN140 BKN250
     FM300500 30006KT P6SM SCT080 SCT120 BKN250
     FM301800 16009KT P6SM FEW080 SCT250=

USA.gov is the U.S. government's official web portal to all federal, state and local government web resources and services.